Sherburn, Minnesota
Current Conditions -  °F | °C
As of 10:33 AM on Saturday 20 Dec 2014 (Local Time) from KMJQ Reporting Station
Overcast Overcast  
Wind Chill: 25°   Ceiling: 800
Heat Index: 32°   Visibility: 10mi
Dew Point: 28°   Wind: 8mph
Humidity: 87%   Direction: 170°S
Pressure: 30.11"   Gusts: NA
Location:  43.65°N, 94.73°W
Report Text: KMJQ 201633Z AUTO 17007KT 10SM OVC008 00/M02 A3011 RMK AO2
Loading
Personal Weather Stations






























Interactive Weather Map New forecast layout! Learn more

10-Day Weather Forecast

Advertisements
Track Severe Weather on mobile